sensor_id;sensor_type;location;lat;lon;timestamp;P1;durP1;ratioP1;P2;durP2;ratioP2
71773;SDS011;59607;52.130;5.430;2024-03-25T00:00:17;10.65;;;1.20;;
71773;SDS011;59607;52.130;5.430;2024-03-25T00:02:43;10.27;;;1.10;;
71773;SDS011;59607;52.130;5.430;2024-03-25T00:05:15;6.82;;;0.60;;
71773;SDS011;59607;52.130;5.430;2024-03-25T00:07:44;11.57;;;1.00;;
71773;SDS011;59607;52.130;5.430;2024-03-25T00:10:09;4.03;;;0.73;;
71773;SDS011;59607;52.130;5.430;2024-03-25T00:12:35;16.67;;;1.67;;
71773;SDS011;59607;52.130;5.430;2024-03-25T00:17:30;9.05;;;1.25;;
71773;SDS011;59607;52.130;5.430;2024-03-25T00:20:02;15.63;;;1.00;;
71773;SDS011;59607;52.130;5.430;2024-03-25T00:22:31;8.25;;;1.02;;
71773;SDS011;59607;52.130;5.430;2024-03-25T00:24:58;10.70;;;0.97;;
71773;SDS011;59607;52.130;5.430;2024-03-25T00:27:24;9.45;;;1.25;;
71773;SDS011;59607;52.130;5.430;2024-03-25T00:29:52;10.93;;;1.08;;
71773;SDS011;59607;52.130;5.430;2024-03-25T00:32:18;11.63;;;1.05;;
71773;SDS011;59607;52.130;5.430;2024-03-25T00:34:43;12.70;;;1.33;;
71773;SDS011;59607;52.130;5.430;2024-03-25T00:37:10;11.63;;;1.00;;
71773;SDS011;59607;52.130;5.430;2024-03-25T00:39:37;8.63;;;0.87;;
71773;SDS011;59607;52.130;5.430;2024-03-25T00:42:02;9.88;;;0.95;;
71773;SDS011;59607;52.130;5.430;2024-03-25T00:44:28;8.10;;;1.17;;
71773;SDS011;59607;52.130;5.430;2024-03-25T00:46:54;12.50;;;1.58;;
71773;SDS011;59607;52.130;5.430;2024-03-25T00:49:23;15.90;;;1.33;;
71773;SDS011;59607;52.130;5.430;2024-03-25T00:51:49;9.90;;;1.23;;
71773;SDS011;59607;52.130;5.430;2024-03-25T00:54:14;13.60;;;1.10;;
71773;SDS011;59607;52.130;5.430;2024-03-25T00:56:40;14.63;;;1.10;;
71773;SDS011;59607;52.130;5.430;2024-03-25T00:59:08;10.67;;;1.23;;
71773;SDS011;59607;52.130;5.430;2024-03-25T01:01:34;7.80;;;1.08;;
71773;SDS011;59607;52.130;5.430;2024-03-25T01:04:01;8.77;;;0.73;;
71773;SDS011;59607;52.130;5.430;2024-03-25T01:06:31;9.50;;;1.00;;
71773;SDS011;59607;52.130;5.430;2024-03-25T01:08:57;13.15;;;1.08;;
71773;SDS011;59607;52.130;5.430;2024-03-25T01:11:25;14.37;;;1.17;;
71773;SDS011;59607;52.130;5.430;2024-03-25T01:13:55;7.43;;;0.98;;
71773;SDS011;59607;52.130;5.430;2024-03-25T01:16:20;8.60;;;1.20;;
71773;SDS011;59607;52.130;5.430;2024-03-25T01:18:46;10.45;;;1.25;;
71773;SDS011;59607;52.130;5.430;2024-03-25T01:21:18;15.55;;;0.85;;
71773;SDS011;59607;52.130;5.430;2024-03-25T01:23:44;12.52;;;1.05;;
71773;SDS011;59607;52.130;5.430;2024-03-25T01:26:16;8.00;;;0.80;;
71773;SDS011;59607;52.130;5.430;2024-03-25T01:28:42;19.55;;;1.38;;
71773;SDS011;59607;52.130;5.430;2024-03-25T01:31:07;11.93;;;0.93;;
71773;SDS011;59607;52.130;5.430;2024-03-25T01:33:36;16.10;;;1.35;;
71773;SDS011;59607;52.130;5.430;2024-03-25T01:36:06;15.02;;;0.80;;
71773;SDS011;59607;52.130;5.430;2024-03-25T01:38:32;13.98;;;1.02;;
71773;SDS011;59607;52.130;5.430;2024-03-25T01:41:10;14.60;;;1.23;;
71773;SDS011;59607;52.130;5.430;2024-03-25T01:43:37;8.60;;;1.30;;
71773;SDS011;59607;52.130;5.430;2024-03-25T01:46:06;9.60;;;0.82;;
71773;SDS011;59607;52.130;5.430;2024-03-25T01:48:36;12.43;;;0.90;;
71773;SDS011;59607;52.130;5.430;2024-03-25T01:51:02;11.77;;;1.53;;
71773;SDS011;59607;52.130;5.430;2024-03-25T01:53:30;5.75;;;0.57;;
71773;SDS011;59607;52.130;5.430;2024-03-25T01:55:56;11.43;;;1.25;;
71773;SDS011;59607;52.130;5.430;2024-03-25T01:58:25;12.37;;;0.97;;
71773;SDS011;59607;52.130;5.430;2024-03-25T02:00:54;8.18;;;1.27;;
71773;SDS011;59607;52.130;5.430;2024-03-25T02:03:26;9.77;;;0.90;;
71773;SDS011;59607;52.130;5.430;2024-03-25T02:05:57;10.35;;;1.10;;
71773;SDS011;59607;52.130;5.430;2024-03-25T02:08:29;9.60;;;0.90;;
71773;SDS011;59607;52.130;5.430;2024-03-25T02:10:56;8.00;;;1.07;;
71773;SDS011;59607;52.130;5.430;2024-03-25T02:13:26;13.38;;;1.60;;
71773;SDS011;59607;52.130;5.430;2024-03-25T02:15:52;9.43;;;1.58;;
71773;SDS011;59607;52.130;5.430;2024-03-25T02:18:23;12.88;;;1.05;;
71773;SDS011;59607;52.130;5.430;2024-03-25T02:20:48;9.63;;;0.90;;
71773;SDS011;59607;52.130;5.430;2024-03-25T02:23:14;9.93;;;1.07;;
71773;SDS011;59607;52.130;5.430;2024-03-25T02:25:43;8.40;;;0.93;;
71773;SDS011;59607;52.130;5.430;2024-03-25T02:28:16;10.48;;;1.23;;
71773;SDS011;59607;52.130;5.430;2024-03-25T02:30:42;10.77;;;0.98;;
71773;SDS011;59607;52.130;5.430;2024-03-25T02:33:08;15.25;;;1.10;;
71773;SDS011;59607;52.130;5.430;2024-03-25T02:35:36;13.30;;;1.17;;
71773;SDS011;59607;52.130;5.430;2024-03-25T02:38:04;18.08;;;2.13;;
71773;SDS011;59607;52.130;5.430;2024-03-25T02:40:35;4.15;;;0.77;;
71773;SDS011;59607;52.130;5.430;2024-03-25T02:43:04;13.68;;;1.05;;
71773;SDS011;59607;52.130;5.430;2024-03-25T02:45:33;14.10;;;1.25;;
71773;SDS011;59607;52.130;5.430;2024-03-25T02:48:03;8.57;;;1.13;;
71773;SDS011;59607;52.130;5.430;2024-03-25T02:50:29;10.90;;;1.08;;
71773;SDS011;59607;52.130;5.430;2024-03-25T02:52:58;6.67;;;0.87;;
71773;SDS011;59607;52.130;5.430;2024-03-25T02:55:26;11.00;;;1.45;;
71773;SDS011;59607;52.130;5.430;2024-03-25T02:57:52;8.90;;;0.80;;
71773;SDS011;59607;52.130;5.430;2024-03-25T03:00:23;9.57;;;1.70;;
71773;SDS011;59607;52.130;5.430;2024-03-25T03:02:52;12.20;;;0.90;;
71773;SDS011;59607;52.130;5.430;2024-03-25T03:05:18;10.63;;;0.93;;
71773;SDS011;59607;52.130;5.430;2024-03-25T03:07:43;17.37;;;1.33;;
71773;SDS011;59607;52.130;5.430;2024-03-25T03:10:10;11.10;;;0.98;;
71773;SDS011;59607;52.130;5.430;2024-03-25T03:12:35;11.75;;;1.30;;
71773;SDS011;59607;52.130;5.430;2024-03-25T03:15:01;6.63;;;1.10;;
71773;SDS011;59607;52.130;5.430;2024-03-25T03:17:29;10.20;;;0.80;;
71773;SDS011;59607;52.130;5.430;2024-03-25T03:19:55;12.65;;;1.17;;
71773;SDS011;59607;52.130;5.430;2024-03-25T03:22:23;9.48;;;0.98;;
71773;SDS011;59607;52.130;5.430;2024-03-25T03:24:50;11.67;;;1.97;;
71773;SDS011;59607;52.130;5.430;2024-03-25T03:27:16;7.22;;;1.40;;
71773;SDS011;59607;52.130;5.430;2024-03-25T03:29:45;13.85;;;1.02;;
71773;SDS011;59607;52.130;5.430;2024-03-25T03:32:11;9.63;;;1.23;;
71773;SDS011;59607;52.130;5.430;2024-03-25T03:34:40;13.23;;;1.13;;
71773;SDS011;59607;52.130;5.430;2024-03-25T03:37:09;12.63;;;1.23;;
71773;SDS011;59607;52.130;5.430;2024-03-25T03:39:34;8.17;;;1.00;;
71773;SDS011;59607;52.130;5.430;2024-03-25T03:42:00;8.63;;;1.13;;
71773;SDS011;59607;52.130;5.430;2024-03-25T03:44:26;8.57;;;0.70;;
71773;SDS011;59607;52.130;5.430;2024-03-25T03:46:54;10.93;;;1.40;;
71773;SDS011;59607;52.130;5.430;2024-03-25T03:49:20;7.97;;;0.90;;
71773;SDS011;59607;52.130;5.430;2024-03-25T03:51:49;7.13;;;1.63;;
71773;SDS011;59607;52.130;5.430;2024-03-25T03:54:17;6.70;;;0.68;;
71773;SDS011;59607;52.130;5.430;2024-03-25T03:56:43;6.55;;;0.63;;
71773;SDS011;59607;52.130;5.430;2024-03-25T03:59:08;7.20;;;0.53;;
71773;SDS011;59607;52.130;5.430;2024-03-25T04:01:49;7.00;;;0.98;;
71773;SDS011;59607;52.130;5.430;2024-03-25T04:04:14;9.10;;;0.93;;
71773;SDS011;59607;52.130;5.430;2024-03-25T04:06:43;11.10;;;1.20;;
71773;SDS011;59607;52.130;5.430;2024-03-25T04:09:08;7.67;;;0.80;;
71773;SDS011;59607;52.130;5.430;2024-03-25T04:11:37;5.88;;;0.90;;
71773;SDS011;59607;52.130;5.430;2024-03-25T04:14:06;10.45;;;1.02;;
71773;SDS011;59607;52.130;5.430;2024-03-25T04:16:32;6.13;;;1.30;;
71773;SDS011;59607;52.130;5.430;2024-03-25T04:18:57;12.43;;;1.02;;
71773;SDS011;59607;52.130;5.430;2024-03-25T04:21:23;4.80;;;0.80;;
71773;SDS011;59607;52.130;5.430;2024-03-25T04:23:52;10.52;;;1.00;;
71773;SDS011;59607;52.130;5.430;2024-03-25T04:26:19;5.80;;;0.88;;
71773;SDS011;59607;52.130;5.430;2024-03-25T04:28:44;6.13;;;0.67;;
71773;SDS011;59607;52.130;5.430;2024-03-25T04:31:10;4.73;;;0.83;;
71773;SDS011;59607;52.130;5.430;2024-03-25T04:33:38;5.68;;;1.23;;
71773;SDS011;59607;52.130;5.430;2024-03-25T04:36:04;6.05;;;0.68;;
71773;SDS011;59607;52.130;5.430;2024-03-25T04:38:30;5.53;;;0.70;;
71773;SDS011;59607;52.130;5.430;2024-03-25T04:40:55;7.50;;;1.38;;
71773;SDS011;59607;52.130;5.430;2024-03-25T04:43:24;7.40;;;1.07;;
71773;SDS011;59607;52.130;5.430;2024-03-25T04:45:49;7.00;;;0.75;;
71773;SDS011;59607;52.130;5.430;2024-03-25T04:48:18;6.23;;;1.33;;
71773;SDS011;59607;52.130;5.430;2024-03-25T04:50:50;7.53;;;0.90;;
71773;SDS011;59607;52.130;5.430;2024-03-25T04:53:15;5.57;;;1.20;;
71773;SDS011;59607;52.130;5.430;2024-03-25T04:55:50;6.30;;;1.10;;
71773;SDS011;59607;52.130;5.430;2024-03-25T04:58:16;5.68;;;0.80;;
71773;SDS011;59607;52.130;5.430;2024-03-25T05:00:47;10.37;;;0.93;;
71773;SDS011;59607;52.130;5.430;2024-03-25T05:03:16;7.93;;;1.20;;
71773;SDS011;59607;52.130;5.430;2024-03-25T05:05:42;4.80;;;1.00;;
71773;SDS011;59607;52.130;5.430;2024-03-25T05:08:09;6.20;;;1.50;;
71773;SDS011;59607;52.130;5.430;2024-03-25T05:10:35;7.82;;;1.20;;
71773;SDS011;59607;52.130;5.430;2024-03-25T05:13:00;6.07;;;1.13;;
71773;SDS011;59607;52.130;5.430;2024-03-25T05:15:26;9.90;;;0.87;;
71773;SDS011;59607;52.130;5.430;2024-03-25T05:17:51;5.22;;;0.80;;
71773;SDS011;59607;52.130;5.430;2024-03-25T05:20:23;6.17;;;0.87;;
71773;SDS011;59607;52.130;5.430;2024-03-25T05:22:49;8.02;;;1.23;;
71773;SDS011;59607;52.130;5.430;2024-03-25T05:25:19;7.78;;;1.13;;
71773;SDS011;59607;52.130;5.430;2024-03-25T05:27:44;5.20;;;1.38;;
71773;SDS011;59607;52.130;5.430;2024-03-25T05:30:10;13.47;;;1.43;;
71773;SDS011;59607;52.130;5.430;2024-03-25T05:32:36;5.80;;;0.90;;
71773;SDS011;59607;52.130;5.430;2024-03-25T05:35:01;5.30;;;1.00;;
71773;SDS011;59607;52.130;5.430;2024-03-25T05:37:31;6.10;;;0.90;;
71773;SDS011;59607;52.130;5.430;2024-03-25T05:40:02;9.15;;;1.38;;
71773;SDS011;59607;52.130;5.430;2024-03-25T05:42:48;4.35;;;1.05;;
71773;SDS011;59607;52.130;5.430;2024-03-25T05:45:13;5.93;;;0.70;;
71773;SDS011;59607;52.130;5.430;2024-03-25T05:47:40;6.97;;;1.23;;
71773;SDS011;59607;52.130;5.430;2024-03-25T05:50:08;11.30;;;1.37;;
71773;SDS011;59607;52.130;5.430;2024-03-25T05:52:37;5.90;;;1.10;;
71773;SDS011;59607;52.130;5.430;2024-03-25T05:55:02;6.75;;;1.02;;
71773;SDS011;59607;52.130;5.430;2024-03-25T05:57:31;9.47;;;1.13;;
71773;SDS011;59607;52.130;5.430;2024-03-25T05:59:56;6.82;;;1.10;;
71773;SDS011;59607;52.130;5.430;2024-03-25T06:02:22;8.33;;;1.23;;
71773;SDS011;59607;52.130;5.430;2024-03-25T06:04:47;5.37;;;1.10;;
71773;SDS011;59607;52.130;5.430;2024-03-25T06:07:16;9.25;;;1.35;;
71773;SDS011;59607;52.130;5.430;2024-03-25T06:09:42;5.32;;;1.00;;
71773;SDS011;59607;52.130;5.430;2024-03-25T06:12:07;7.47;;;1.33;;
71773;SDS011;59607;52.130;5.430;2024-03-25T06:14:33;4.53;;;1.13;;
71773;SDS011;59607;52.130;5.430;2024-03-25T06:16:59;6.03;;;1.20;;
71773;SDS011;59607;52.130;5.430;2024-03-25T06:19:26;8.32;;;1.50;;
71773;SDS011;59607;52.130;5.430;2024-03-25T06:21:54;6.87;;;1.60;;
71773;SDS011;59607;52.130;5.430;2024-03-25T06:24:20;5.28;;;1.23;;
71773;SDS011;59607;52.130;5.430;2024-03-25T06:26:48;4.87;;;1.37;;
71773;SDS011;59607;52.130;5.430;2024-03-25T06:29:17;18.23;;;2.05;;
71773;SDS011;59607;52.130;5.430;2024-03-25T06:31:42;10.27;;;2.00;;
71773;SDS011;59607;52.130;5.430;2024-03-25T06:34:28;6.60;;;1.70;;
71773;SDS011;59607;52.130;5.430;2024-03-25T06:36:54;4.63;;;1.90;;
71773;SDS011;59607;52.130;5.430;2024-03-25T06:39:23;8.02;;;2.10;;
71773;SDS011;59607;52.130;5.430;2024-03-25T06:41:49;7.35;;;1.35;;
71773;SDS011;59607;52.130;5.430;2024-03-25T06:44:14;6.90;;;1.60;;
71773;SDS011;59607;52.130;5.430;2024-03-25T06:46:46;6.45;;;1.75;;
71773;SDS011;59607;52.130;5.430;2024-03-25T06:49:12;7.50;;;1.85;;
71773;SDS011;59607;52.130;5.430;2024-03-25T06:51:37;6.17;;;1.70;;
71773;SDS011;59607;52.130;5.430;2024-03-25T06:54:05;4.75;;;1.55;;
71773;SDS011;59607;52.130;5.430;2024-03-25T06:56:36;6.10;;;1.60;;
71773;SDS011;59607;52.130;5.430;2024-03-25T06:59:02;6.63;;;2.00;;
71773;SDS011;59607;52.130;5.430;2024-03-25T07:01:27;7.07;;;1.88;;
71773;SDS011;59607;52.130;5.430;2024-03-25T07:03:56;10.10;;;1.40;;
71773;SDS011;59607;52.130;5.430;2024-03-25T07:06:21;4.28;;;1.17;;
71773;SDS011;59607;52.130;5.430;2024-03-25T07:08:48;6.05;;;1.40;;
71773;SDS011;59607;52.130;5.430;2024-03-25T07:11:17;7.40;;;1.70;;
71773;SDS011;59607;52.130;5.430;2024-03-25T07:13:43;3.97;;;1.58;;
71773;SDS011;59607;52.130;5.430;2024-03-25T07:16:09;10.45;;;2.30;;
71773;SDS011;59607;52.130;5.430;2024-03-25T07:18:37;9.27;;;1.97;;
71773;SDS011;59607;52.130;5.430;2024-03-25T07:21:03;5.43;;;1.42;;
71773;SDS011;59607;52.130;5.430;2024-03-25T07:23:28;7.07;;;1.70;;
71773;SDS011;59607;52.130;5.430;2024-03-25T07:25:54;8.03;;;1.70;;
71773;SDS011;59607;52.130;5.430;2024-03-25T07:28:20;6.23;;;1.33;;
71773;SDS011;59607;52.130;5.430;2024-03-25T07:30:49;9.27;;;1.60;;
71773;SDS011;59607;52.130;5.430;2024-03-25T07:33:15;8.93;;;1.70;;
71773;SDS011;59607;52.130;5.430;2024-03-25T07:35:42;7.70;;;1.58;;
71773;SDS011;59607;52.130;5.430;2024-03-25T07:38:13;12.63;;;2.40;;
71773;SDS011;59607;52.130;5.430;2024-03-25T07:40:38;11.75;;;1.83;;
71773;SDS011;59607;52.130;5.430;2024-03-25T07:43:04;7.53;;;2.03;;
71773;SDS011;59607;52.130;5.430;2024-03-25T07:45:30;6.68;;;1.33;;
71773;SDS011;59607;52.130;5.430;2024-03-25T07:47:59;5.50;;;1.40;;
71773;SDS011;59607;52.130;5.430;2024-03-25T07:50:24;6.50;;;1.40;;
71773;SDS011;59607;52.130;5.430;2024-03-25T07:52:50;13.27;;;1.85;;
71773;SDS011;59607;52.130;5.430;2024-03-25T07:55:20;12.60;;;1.97;;
71773;SDS011;59607;52.130;5.430;2024-03-25T07:57:46;8.32;;;1.42;;
71773;SDS011;59607;52.130;5.430;2024-03-25T08:00:11;11.60;;;1.73;;
71773;SDS011;59607;52.130;5.430;2024-03-25T08:02:44;5.73;;;1.77;;
71773;SDS011;59607;52.130;5.430;2024-03-25T08:05:09;10.65;;;1.40;;
71773;SDS011;59607;52.130;5.430;2024-03-25T08:07:38;6.33;;;1.80;;
71773;SDS011;59607;52.130;5.430;2024-03-25T08:10:04;11.98;;;2.03;;
71773;SDS011;59607;52.130;5.430;2024-03-25T08:12:34;9.88;;;1.55;;
71773;SDS011;59607;52.130;5.430;2024-03-25T08:15:06;9.43;;;1.63;;
71773;SDS011;59607;52.130;5.430;2024-03-25T08:17:36;8.05;;;1.70;;
71773;SDS011;59607;52.130;5.430;2024-03-25T08:20:02;11.50;;;1.63;;
71773;SDS011;59607;52.130;5.430;2024-03-25T08:22:34;11.70;;;1.08;;
71773;SDS011;59607;52.130;5.430;2024-03-25T08:25:00;4.30;;;0.70;;
71773;SDS011;59607;52.130;5.430;2024-03-25T08:27:25;12.63;;;1.50;;
71773;SDS011;59607;52.130;5.430;2024-03-25T08:29:51;10.95;;;1.25;;
71773;SDS011;59607;52.130;5.430;2024-03-25T08:32:19;11.85;;;1.70;;
71773;SDS011;59607;52.130;5.430;2024-03-25T08:34:45;11.27;;;1.50;;
71773;SDS011;59607;52.130;5.430;2024-03-25T08:37:11;6.50;;;0.70;;
71773;SDS011;59607;52.130;5.430;2024-03-25T08:39:37;6.33;;;0.77;;
71773;SDS011;59607;52.130;5.430;2024-03-25T08:42:06;8.80;;;0.70;;
71773;SDS011;59607;52.130;5.430;2024-03-25T08:44:31;8.77;;;1.25;;
71773;SDS011;59607;52.130;5.430;2024-03-25T08:46:57;5.50;;;0.83;;
71773;SDS011;59607;52.130;5.430;2024-03-25T08:49:22;8.65;;;1.10;;
71773;SDS011;59607;52.130;5.430;2024-03-25T08:51:51;10.80;;;1.30;;
71773;SDS011;59607;52.130;5.430;2024-03-25T08:54:17;7.07;;;1.20;;
71773;SDS011;59607;52.130;5.430;2024-03-25T08:56:42;10.37;;;1.43;;
71773;SDS011;59607;52.130;5.430;2024-03-25T08:59:13;7.80;;;1.95;;
71773;SDS011;59607;52.130;5.430;2024-03-25T09:01:39;7.95;;;1.33;;
71773;SDS011;59607;52.130;5.430;2024-03-25T09:04:10;10.90;;;1.63;;
71773;SDS011;59607;52.130;5.430;2024-03-25T09:06:39;5.95;;;1.52;;
71773;SDS011;59607;52.130;5.430;2024-03-25T09:09:05;9.27;;;1.48;;
71773;SDS011;59607;52.130;5.430;2024-03-25T09:11:49;11.25;;;1.70;;
71773;SDS011;59607;52.130;5.430;2024-03-25T09:14:16;11.63;;;1.13;;
71773;SDS011;59607;52.130;5.430;2024-03-25T09:16:44;7.70;;;1.43;;
71773;SDS011;59607;52.130;5.430;2024-03-25T09:19:10;10.40;;;1.30;;
71773;SDS011;59607;52.130;5.430;2024-03-25T09:21:38;6.40;;;1.37;;
71773;SDS011;59607;52.130;5.430;2024-03-25T09:24:07;7.28;;;1.70;;
71773;SDS011;59607;52.130;5.430;2024-03-25T09:26:33;7.55;;;0.80;;
71773;SDS011;59607;52.130;5.430;2024-03-25T09:28:59;10.47;;;1.80;;
71773;SDS011;59607;52.130;5.430;2024-03-25T09:31:26;14.40;;;1.58;;
71773;SDS011;59607;52.130;5.430;2024-03-25T09:33:52;9.37;;;2.10;;
71773;SDS011;59607;52.130;5.430;2024-03-25T09:36:17;9.52;;;2.17;;
71773;SDS011;59607;52.130;5.430;2024-03-25T09:38:43;10.87;;;2.67;;
71773;SDS011;59607;52.130;5.430;2024-03-25T09:41:10;14.68;;;2.70;;
71773;SDS011;59607;52.130;5.430;2024-03-25T09:43:43;6.28;;;1.65;;
71773;SDS011;59607;52.130;5.430;2024-03-25T09:46:13;8.93;;;2.08;;
71773;SDS011;59607;52.130;5.430;2024-03-25T09:48:39;8.80;;;2.47;;
71773;SDS011;59607;52.130;5.430;2024-03-25T09:51:07;11.80;;;2.55;;
71773;SDS011;59607;52.130;5.430;2024-03-25T09:53:34;5.47;;;1.52;;
71773;SDS011;59607;52.130;5.430;2024-03-25T09:56:03;10.90;;;1.70;;
71773;SDS011;59607;52.130;5.430;2024-03-25T09:58:29;9.20;;;1.70;;
71773;SDS011;59607;52.130;5.430;2024-03-25T10:00:57;10.23;;;2.25;;
71773;SDS011;59607;52.130;5.430;2024-03-25T10:03:27;7.50;;;1.92;;
71773;SDS011;59607;52.130;5.430;2024-03-25T10:05:53;9.10;;;2.28;;
71773;SDS011;59607;52.130;5.430;2024-03-25T10:08:21;7.80;;;2.57;;
71773;SDS011;59607;52.130;5.430;2024-03-25T10:10:51;10.23;;;1.90;;
71773;SDS011;59607;52.130;5.430;2024-03-25T10:13:16;6.32;;;1.67;;
71773;SDS011;59607;52.130;5.430;2024-03-25T10:15:42;9.83;;;1.67;;
71773;SDS011;59607;52.130;5.430;2024-03-25T10:18:09;6.10;;;1.88;;
71773;SDS011;59607;52.130;5.430;2024-03-25T10:20:49;10.73;;;3.20;;
71773;SDS011;59607;52.130;5.430;2024-03-25T10:23:25;11.57;;;2.67;;
71773;SDS011;59607;52.130;5.430;2024-03-25T10:25:51;4.30;;;1.80;;
71773;SDS011;59607;52.130;5.430;2024-03-25T10:28:21;13.82;;;2.05;;
71773;SDS011;59607;52.130;5.430;2024-03-25T10:30:46;7.13;;;1.67;;
71773;SDS011;59607;52.130;5.430;2024-03-25T10:33:18;8.87;;;1.83;;
71773;SDS011;59607;52.130;5.430;2024-03-25T10:35:47;9.55;;;1.58;;
71773;SDS011;59607;52.130;5.430;2024-03-25T10:38:15;6.32;;;1.48;;
71773;SDS011;59607;52.130;5.430;2024-03-25T10:40:45;6.97;;;1.58;;
71773;SDS011;59607;52.130;5.430;2024-03-25T10:43:19;8.30;;;1.83;;
71773;SDS011;59607;52.130;5.430;2024-03-25T10:45:51;9.73;;;1.60;;
71773;SDS011;59607;52.130;5.430;2024-03-25T10:48:35;7.28;;;1.92;;
71773;SDS011;59607;52.130;5.430;2024-03-25T10:51:05;11.05;;;1.80;;
71773;SDS011;59607;52.130;5.430;2024-03-25T10:53:32;6.13;;;1.77;;
71773;SDS011;59607;52.130;5.430;2024-03-25T10:56:04;5.95;;;1.80;;
71773;SDS011;59607;52.130;5.430;2024-03-25T10:58:36;3.90;;;1.27;;
71773;SDS011;59607;52.130;5.430;2024-03-25T11:01:07;5.95;;;2.03;;
71773;SDS011;59607;52.130;5.430;2024-03-25T11:03:42;5.70;;;1.60;;
71773;SDS011;59607;52.130;5.430;2024-03-25T11:06:12;5.43;;;1.80;;
71773;SDS011;59607;52.130;5.430;2024-03-25T11:08:42;5.95;;;1.38;;
71773;SDS011;59607;52.130;5.430;2024-03-25T11:11:15;7.87;;;1.50;;
71773;SDS011;59607;52.130;5.430;2024-03-25T11:13:43;6.43;;;1.55;;
71773;SDS011;59607;52.130;5.430;2024-03-25T11:16:09;7.07;;;1.63;;
71773;SDS011;59607;52.130;5.430;2024-03-25T11:18:39;5.65;;;1.67;;
71773;SDS011;59607;52.130;5.430;2024-03-25T11:21:06;4.55;;;1.83;;
71773;SDS011;59607;52.130;5.430;2024-03-25T11:23:43;9.03;;;1.90;;
71773;SDS011;59607;52.130;5.430;2024-03-25T11:28:54;4.07;;;1.35;;
71773;SDS011;59607;52.130;5.430;2024-03-25T11:31:20;9.00;;;1.83;;
71773;SDS011;59607;52.130;5.430;2024-03-25T11:33:55;4.90;;;1.60;;
71773;SDS011;59607;52.130;5.430;2024-03-25T11:36:23;6.28;;;1.95;;
71773;SDS011;59607;52.130;5.430;2024-03-25T11:39:01;5.30;;;1.40;;
71773;SDS011;59607;52.130;5.430;2024-03-25T11:41:33;4.70;;;1.77;;
71773;SDS011;59607;52.130;5.430;2024-03-25T11:44:02;6.45;;;1.30;;
71773;SDS011;59607;52.130;5.430;2024-03-25T11:46:31;6.45;;;1.98;;
71773;SDS011;59607;52.130;5.430;2024-03-25T11:49:01;5.50;;;2.00;;
71773;SDS011;59607;52.130;5.430;2024-03-25T11:51:27;6.40;;;1.52;;
71773;SDS011;59607;52.130;5.430;2024-03-25T11:53:52;7.30;;;1.90;;
71773;SDS011;59607;52.130;5.430;2024-03-25T11:56:18;7.03;;;2.20;;
71773;SDS011;59607;52.130;5.430;2024-03-25T11:58:46;4.57;;;1.50;;
71773;SDS011;59607;52.130;5.430;2024-03-25T12:01:12;7.18;;;1.40;;
71773;SDS011;59607;52.130;5.430;2024-03-25T12:03:37;5.13;;;1.73;;
71773;SDS011;59607;52.130;5.430;2024-03-25T12:06:03;4.20;;;1.33;;
71773;SDS011;59607;52.130;5.430;2024-03-25T12:08:30;6.28;;;2.08;;
71773;SDS011;59607;52.130;5.430;2024-03-25T12:10:57;6.35;;;1.73;;
71773;SDS011;59607;52.130;5.430;2024-03-25T12:13:42;5.10;;;1.90;;
71773;SDS011;59607;52.130;5.430;2024-03-25T12:16:10;4.93;;;1.80;;
71773;SDS011;59607;52.130;5.430;2024-03-25T12:18:36;7.50;;;1.92;;
71773;SDS011;59607;52.130;5.430;2024-03-25T12:21:05;5.20;;;1.85;;
71773;SDS011;59607;52.130;5.430;2024-03-25T12:23:34;4.73;;;1.77;;
71773;SDS011;59607;52.130;5.430;2024-03-25T12:26:00;6.53;;;2.03;;
71773;SDS011;59607;52.130;5.430;2024-03-25T12:28:26;4.95;;;2.25;;
71773;SDS011;59607;52.130;5.430;2024-03-25T12:30:55;6.87;;;2.40;;
71773;SDS011;59607;52.130;5.430;2024-03-25T12:33:23;5.23;;;1.60;;
71773;SDS011;59607;52.130;5.430;2024-03-25T12:35:49;4.07;;;1.75;;
71773;SDS011;59607;52.130;5.430;2024-03-25T12:38:29;3.53;;;1.50;;
71773;SDS011;59607;52.130;5.430;2024-03-25T12:41:09;3.17;;;1.80;;
71773;SDS011;59607;52.130;5.430;2024-03-25T12:43:37;5.03;;;1.48;;
71773;SDS011;59607;52.130;5.430;2024-03-25T12:46:11;3.35;;;1.50;;
71773;SDS011;59607;52.130;5.430;2024-03-25T12:48:37;4.22;;;1.30;;
71773;SDS011;59607;52.130;5.430;2024-03-25T12:51:03;3.83;;;1.60;;
71773;SDS011;59607;52.130;5.430;2024-03-25T12:53:30;4.70;;;1.57;;
71773;SDS011;59607;52.130;5.430;2024-03-25T12:55:55;3.72;;;1.50;;
71773;SDS011;59607;52.130;5.430;2024-03-25T12:58:21;3.08;;;1.30;;
71773;SDS011;59607;52.130;5.430;2024-03-25T13:00:47;3.10;;;1.50;;
71773;SDS011;59607;52.130;5.430;2024-03-25T13:03:19;3.58;;;1.25;;
71773;SDS011;59607;52.130;5.430;2024-03-25T13:05:44;3.35;;;1.85;;
71773;SDS011;59607;52.130;5.430;2024-03-25T13:08:10;4.20;;;2.60;;
71773;SDS011;59607;52.130;5.430;2024-03-25T13:10:35;3.77;;;1.93;;
71773;SDS011;59607;52.130;5.430;2024-03-25T13:13:04;3.83;;;1.70;;
71773;SDS011;59607;52.130;5.430;2024-03-25T13:15:31;4.07;;;1.50;;
71773;SDS011;59607;52.130;5.430;2024-03-25T13:17:56;4.70;;;1.83;;
71773;SDS011;59607;52.130;5.430;2024-03-25T13:20:28;3.03;;;1.30;;
71773;SDS011;59607;52.130;5.430;2024-03-25T13:22:54;3.47;;;1.60;;
71773;SDS011;59607;52.130;5.430;2024-03-25T13:25:22;4.15;;;1.63;;
71773;SDS011;59607;52.130;5.430;2024-03-25T13:27:48;4.07;;;1.73;;
71773;SDS011;59607;52.130;5.430;2024-03-25T13:30:13;3.53;;;1.40;;
71773;SDS011;59607;52.130;5.430;2024-03-25T13:32:39;3.27;;;1.10;;
71773;SDS011;59607;52.130;5.430;2024-03-25T13:35:04;5.10;;;1.50;;
71773;SDS011;59607;52.130;5.430;2024-03-25T13:37:31;6.27;;;1.43;;
71773;SDS011;59607;52.130;5.430;2024-03-25T13:40:00;3.70;;;1.55;;
71773;SDS011;59607;52.130;5.430;2024-03-25T13:42:25;5.67;;;1.40;;
71773;SDS011;59607;52.130;5.430;2024-03-25T13:44:51;3.17;;;1.70;;
71773;SDS011;59607;52.130;5.430;2024-03-25T13:47:16;3.00;;;1.27;;
71773;SDS011;59607;52.130;5.430;2024-03-25T13:49:45;3.93;;;1.27;;
71773;SDS011;59607;52.130;5.430;2024-03-25T13:52:11;4.50;;;1.55;;
71773;SDS011;59607;52.130;5.430;2024-03-25T13:54:37;4.80;;;1.98;;
71773;SDS011;59607;52.130;5.430;2024-03-25T13:57:03;3.30;;;1.40;;
71773;SDS011;59607;52.130;5.430;2024-03-25T13:59:28;2.88;;;1.63;;
71773;SDS011;59607;52.130;5.430;2024-03-25T14:01:54;4.33;;;1.57;;
71773;SDS011;59607;52.130;5.430;2024-03-25T14:04:20;2.57;;;1.17;;
71773;SDS011;59607;52.130;5.430;2024-03-25T14:06:48;3.17;;;1.40;;
71773;SDS011;59607;52.130;5.430;2024-03-25T14:09:27;4.93;;;1.27;;
71773;SDS011;59607;52.130;5.430;2024-03-25T14:11:56;2.97;;;1.20;;
71773;SDS011;59607;52.130;5.430;2024-03-25T14:14:21;4.57;;;1.35;;
71773;SDS011;59607;52.130;5.430;2024-03-25T14:16:47;2.53;;;1.27;;
71773;SDS011;59607;52.130;5.430;2024-03-25T14:19:19;4.00;;;1.75;;
71773;SDS011;59607;52.130;5.430;2024-03-25T14:21:47;4.30;;;1.45;;
71773;SDS011;59607;52.130;5.430;2024-03-25T14:24:14;7.40;;;1.73;;
71773;SDS011;59607;52.130;5.430;2024-03-25T14:26:44;3.10;;;1.23;;
71773;SDS011;59607;52.130;5.430;2024-03-25T14:29:10;4.10;;;1.40;;
71773;SDS011;59607;52.130;5.430;2024-03-25T14:34:10;3.70;;;1.30;;
71773;SDS011;59607;52.130;5.430;2024-03-25T14:36:36;5.60;;;1.10;;
71773;SDS011;59607;52.130;5.430;2024-03-25T14:39:04;3.03;;;1.17;;
71773;SDS011;59607;52.130;5.430;2024-03-25T14:41:37;3.05;;;1.33;;
71773;SDS011;59607;52.130;5.430;2024-03-25T14:44:04;3.70;;;1.30;;
71773;SDS011;59607;52.130;5.430;2024-03-25T14:46:33;3.80;;;0.90;;
71773;SDS011;59607;52.130;5.430;2024-03-25T14:48:59;4.28;;;1.27;;
71773;SDS011;59607;52.130;5.430;2024-03-25T14:51:24;4.77;;;1.30;;
71773;SDS011;59607;52.130;5.430;2024-03-25T14:53:51;3.13;;;1.60;;